Observations for DINARD PLEURTUIT, France (LFRD)

LFRD 242100Z AUTO 27006KT 9999 BKN021 OVC035 10/09 Q1015
LFRD 242030Z AUTO 25005KT 9999 FEW006 BKN013 BKN021 10/09 Q1015 
LFRD 242000Z AUTO 25007KT 9999 -RA BKN013 BKN019 OVC025 10/09 Q1015 
LFRD 241930Z AUTO 26007KT 9999 BKN015 BKN022 BKN031 10/09 Q1016 
LFRD 241900Z AUTO 28008KT 9999 FEW006 SCT015 BKN022 10/09 Q1016 
LFRD 241830Z AUTO 28006KT 250V320 9999 OVC005 10/09 Q1016   
LFRD 241800Z AUTO 26007KT 9999 3400 RA BKN006 OVC037 10/09 Q1016
LFRD 241730Z AUTO 26007KT 7000 -RA SCT010 OVC017 10/09 Q1016
LFRD 241700Z AUTO 27008KT 240V300 8000 -RA FEW021 BKN033 OVC040 10/08 Q1016 
LFRD 241630Z AUTO 26008KT 230V290 9999 FEW024 SCT035 BKN041 10/08 Q1016 
LFRD 241600Z AUTO 27013KT 9999 FEW012 BKN025 BKN034 10/08 Q1016 
LFRD 241530Z AUTO 28007KT 9999 SCT026 BKN033 OVC041 11/08 Q1016 
LFRD 241500Z AUTO 29014KT 9999 FEW023 SCT029 OVC043 12/08 Q1016 
LFRD 241430Z AUTO 29012KT 9999 SCT027 SCT034 OVC042 12/07 Q1016 
LFRD 241400Z AUTO 30014KT 9999 FEW027 OVC043 12/07 Q1017
LFRD 241330Z AUTO 30015KT 9999 FEW028 BKN039 OVC130 12/07 Q1017 
LFRD 241300Z AUTO 29015KT 9999 FEW026 OVC037 11/07 Q1017
LFRD 241230Z AUTO 29014KT 9999 BKN030 OVC035 11/08 Q1017
LFRD 241200Z AUTO 29013KT 9999 FEW023 BKN029 OVC037 11/08 Q1017 
LFRD 241130Z AUTO 29013KT 260V320 9999 FEW011 SCT017 OVC027 11/09 Q1017 
LFRD 241100Z AUTO 27009KT 9999 BKN004 BKN016 OVC027 11/10 Q1017 
LFRD 241030Z AUTO 23011KT 200V260 3700 DZ BR BKN006 OVC011 10/10 Q1017  
LFRD 241000Z AUTO 22013KT 6000 SCT008 OVC014 10/09 Q1017
LFRD 240930Z AUTO 22014KT 9999 BKN010/// OVC016/// 10/09 Q1018  
LFRD 240900Z AUTO 22014KT 9999 FEW015 SCT020 OVC026 09/09 Q1018 
LFRD 240830Z AUTO 22012KT 9999 -DZ SCT010 SCT015 OVC026 09/08 Q1018 
LFRD 240800Z AUTO 21013KT 9999 BKN006 OVC025 08/08 Q1018
LFRD 240730Z AUTO 20014KT 4200 -RA BR BKN006 BKN012 OVC029 08/07 Q1018  
LFRD 240700Z AUTO 20015KT 4700 -RA BR FEW008 BKN033 OVC044 08/07 Q1018  
LFRD 240630Z AUTO 19016KT 9999 -RA OVC033 07/06 Q1018   
LFRD 240600Z AUTO 20013KT 9000 -RA OVC037 07/06 Q1019   
LFRD 240530Z AUTO 20013KT 9999 -RA BKN041 OVC047 07/05 Q1019
LFRD 240500Z AUTO 19014KT 9999 -DZ NSC 07/05 Q1020  
LFRD 240430Z AUTO 19013KT 9999 -RA NSC 07/04 Q1020  
LFRD 240400Z AUTO 19013KT 9999 -RA NSC 07/04 Q1021  
LFRD 240330Z AUTO 20011KT 9999 -RADZ BKN033 OVC068 07/04 Q1022  
LFRD 240300Z AUTO 20011KT 9999 -RADZ BKN035 BKN047 OVC074 07/04 Q1022   
LFRD 240230Z AUTO 20011KT 9999 BKN044 OVC058 06/04 Q1023
LFRD 240200Z AUTO 21010KT 9999 BKN048 OVC082 06/03 Q1023
LFRD 240130Z AUTO 20011KT 9999 FEW049 SCT082 BKN100 06/03 Q1023 
LFRD 240100Z AUTO 19011KT CAVOK 06/03 Q1023 
LFRD 240030Z AUTO 20010KT CAVOK 06/03 Q1024 
LFRD 240000Z AUTO 19011KT 9999 FEW049 OVC120 06/03 Q1024
LFRD 232330Z AUTO 19009KT CAVOK 06/03 Q1024 
LFRD 232300Z AUTO 20008KT CAVOK 06/03 Q1025 
LFRD 232230Z AUTO 20007KT CAVOK 06/03 Q1025 
LFRD 232200Z AUTO 20006KT CAVOK 06/03 Q1025 
LFRD 232130Z AUTO 20007KT CAVOK 06/03 Q1025 
LFRD 232100Z AUTO 20007KT CAVOK 06/03 Q1025 
LFRD 232030Z AUTO 21005KT CAVOK 06/03 Q1025